sensor_id;sensor_type;location;lat;lon;timestamp;temperature;humidity
65858;SHT31;53776;47.242;18.674;2022-08-06T00:02:12;19.64;67.92
65858;SHT31;53776;47.242;18.674;2022-08-06T00:04:37;19.63;67.50
65858;SHT31;53776;47.242;18.674;2022-08-06T00:07:03;19.60;68.23
65858;SHT31;53776;47.242;18.674;2022-08-06T00:09:28;19.51;68.57
65858;SHT31;53776;47.242;18.674;2022-08-06T00:11:59;19.49;68.17
65858;SHT31;53776;47.242;18.674;2022-08-06T00:14:26;19.47;68.37
65858;SHT31;53776;47.242;18.674;2022-08-06T00:16:51;19.46;68.46
65858;SHT31;53776;47.242;18.674;2022-08-06T00:19:17;19.40;68.61
65858;SHT31;53776;47.242;18.674;2022-08-06T00:21:42;19.31;69.01
65858;SHT31;53776;47.242;18.674;2022-08-06T00:24:08;19.34;68.86
65858;SHT31;53776;47.242;18.674;2022-08-06T00:26:33;19.34;69.11
65858;SHT31;53776;47.242;18.674;2022-08-06T00:28:59;19.31;68.79
65858;SHT31;53776;47.242;18.674;2022-08-06T00:31:24;19.24;68.92
65858;SHT31;53776;47.242;18.674;2022-08-06T00:33:49;19.20;69.10
65858;SHT31;53776;47.242;18.674;2022-08-06T00:36:15;19.19;69.03
65858;SHT31;53776;47.242;18.674;2022-08-06T00:38:40;19.19;68.06
65858;SHT31;53776;47.242;18.674;2022-08-06T00:41:06;19.15;69.12
65858;SHT31;53776;47.242;18.674;2022-08-06T00:43:32;19.10;69.14
65858;SHT31;53776;47.242;18.674;2022-08-06T00:45:58;19.00;68.79
65858;SHT31;53776;47.242;18.674;2022-08-06T00:48:23;18.92;69.19
65858;SHT31;53776;47.242;18.674;2022-08-06T00:50:48;19.03;68.04
65858;SHT31;53776;47.242;18.674;2022-08-06T00:53:14;19.03;68.08
65858;SHT31;53776;47.242;18.674;2022-08-06T00:55:39;18.98;68.99
65858;SHT31;53776;47.242;18.674;2022-08-06T00:58:05;19.02;69.01
65858;SHT31;53776;47.242;18.674;2022-08-06T01:00:32;19.03;68.08
65858;SHT31;53776;47.242;18.674;2022-08-06T01:02:57;19.08;68.40
65858;SHT31;53776;47.242;18.674;2022-08-06T01:05:23;19.05;68.53
65858;SHT31;53776;47.242;18.674;2022-08-06T01:07:48;19.00;68.35
65858;SHT31;53776;47.242;18.674;2022-08-06T01:10:13;18.87;69.70
65858;SHT31;53776;47.242;18.674;2022-08-06T01:12:39;18.85;69.85
65858;SHT31;53776;47.242;18.674;2022-08-06T01:15:05;18.82;70.08
65858;SHT31;53776;47.242;18.674;2022-08-06T01:20:15;18.87;69.66
65858;SHT31;53776;47.242;18.674;2022-08-06T01:23:09;18.88;69.77
65858;SHT31;53776;47.242;18.674;2022-08-06T01:28:35;18.82;69.83
65858;SHT31;53776;47.242;18.674;2022-08-06T01:31:05;18.78;71.38
65858;SHT31;53776;47.242;18.674;2022-08-06T01:33:41;18.81;70.39
65858;SHT31;53776;47.242;18.674;2022-08-06T01:36:12;18.84;71.47
65858;SHT31;53776;47.242;18.674;2022-08-06T01:38:42;18.79;70.98
65858;SHT31;53776;47.242;18.674;2022-08-06T01:41:11;18.75;71.04
65858;SHT31;53776;47.242;18.674;2022-08-06T01:43:38;18.78;70.31
65858;SHT31;53776;47.242;18.674;2022-08-06T01:46:06;18.75;71.16
65858;SHT31;53776;47.242;18.674;2022-08-06T01:48:36;18.72;70.24
65858;SHT31;53776;47.242;18.674;2022-08-06T01:51:04;18.68;70.17
65858;SHT31;53776;47.242;18.674;2022-08-06T01:53:35;18.62;71.47
65858;SHT31;53776;47.242;18.674;2022-08-06T01:56:02;18.51;71.33
65858;SHT31;53776;47.242;18.674;2022-08-06T01:58:33;18.44;72.17
65858;SHT31;53776;47.242;18.674;2022-08-06T02:01:06;18.48;71.20
65858;SHT31;53776;47.242;18.674;2022-08-06T02:03:43;18.45;72.33
65858;SHT31;53776;47.242;18.674;2022-08-06T02:06:12;18.51;71.36
65858;SHT31;53776;47.242;18.674;2022-08-06T02:08:39;18.45;72.14
65858;SHT31;53776;47.242;18.674;2022-08-06T02:11:08;18.47;72.14
65858;SHT31;53776;47.242;18.674;2022-08-06T02:13:35;18.52;70.66
65858;SHT31;53776;47.242;18.674;2022-08-06T02:16:02;18.55;70.00
65858;SHT31;53776;47.242;18.674;2022-08-06T02:18:30;18.38;68.67
65858;SHT31;53776;47.242;18.674;2022-08-06T02:20:57;18.45;69.55
65858;SHT31;53776;47.242;18.674;2022-08-06T02:23:26;18.47;69.18
65858;SHT31;53776;47.242;18.674;2022-08-06T02:25:54;18.38;69.09
65858;SHT31;53776;47.242;18.674;2022-08-06T02:28:23;18.30;68.04
65858;SHT31;53776;47.242;18.674;2022-08-06T02:30:51;18.36;68.32
65858;SHT31;53776;47.242;18.674;2022-08-06T02:33:17;18.40;69.25
65858;SHT31;53776;47.242;18.674;2022-08-06T02:35:47;18.34;70.25
65858;SHT31;53776;47.242;18.674;2022-08-06T02:38:20;18.38;68.92
65858;SHT31;53776;47.242;18.674;2022-08-06T02:40:53;18.40;69.04
65858;SHT31;53776;47.242;18.674;2022-08-06T02:43:23;18.41;68.92
65858;SHT31;53776;47.242;18.674;2022-08-06T02:45:58;18.38;70.03
65858;SHT31;53776;47.242;18.674;2022-08-06T02:48:28;18.27;72.01
65858;SHT31;53776;47.242;18.674;2022-08-06T02:50:56;18.31;71.47
65858;SHT31;53776;47.242;18.674;2022-08-06T02:54:12;18.30;70.19
65858;SHT31;53776;47.242;18.674;2022-08-06T02:56:18;18.26;69.83
65858;SHT31;53776;47.242;18.674;2022-08-06T02:58:46;18.23;70.14
65858;SHT31;53776;47.242;18.674;2022-08-06T03:01:14;18.17;70.80
65858;SHT31;53776;47.242;18.674;2022-08-06T03:03:42;18.17;71.66
65858;SHT31;53776;47.242;18.674;2022-08-06T03:06:11;18.12;71.81
65858;SHT31;53776;47.242;18.674;2022-08-06T03:08:37;18.10;71.26
65858;SHT31;53776;47.242;18.674;2022-08-06T03:11:05;18.09;71.12
65858;SHT31;53776;47.242;18.674;2022-08-06T03:13:31;18.06;71.54
65858;SHT31;53776;47.242;18.674;2022-08-06T03:15:58;18.04;71.18
65858;SHT31;53776;47.242;18.674;2022-08-06T03:18:24;17.94;69.11
65858;SHT31;53776;47.242;18.674;2022-08-06T03:20:51;17.97;68.61
65858;SHT31;53776;47.242;18.674;2022-08-06T03:23:17;18.04;68.28
65858;SHT31;53776;47.242;18.674;2022-08-06T03:25:43;18.16;67.77
65858;SHT31;53776;47.242;18.674;2022-08-06T03:28:11;18.17;68.05
65858;SHT31;53776;47.242;18.674;2022-08-06T03:30:38;18.23;68.22
65858;SHT31;53776;47.242;18.674;2022-08-06T03:33:07;18.26;69.63
65858;SHT31;53776;47.242;18.674;2022-08-06T03:35:34;18.24;68.58
65858;SHT31;53776;47.242;18.674;2022-08-06T03:38:01;18.14;69.56
65858;SHT31;53776;47.242;18.674;2022-08-06T03:40:29;18.17;68.64
65858;SHT31;53776;47.242;18.674;2022-08-06T03:42:56;18.20;68.76
65858;SHT31;53776;47.242;18.674;2022-08-06T03:45:22;18.29;68.72
65858;SHT31;53776;47.242;18.674;2022-08-06T03:47:53;18.21;71.34
65858;SHT31;53776;47.242;18.674;2022-08-06T03:50:29;18.23;69.00
65858;SHT31;53776;47.242;18.674;2022-08-06T03:53:00;18.34;70.26
65858;SHT31;53776;47.242;18.674;2022-08-06T03:55:32;18.38;69.37
65858;SHT31;53776;47.242;18.674;2022-08-06T03:58:05;18.41;69.13
65858;SHT31;53776;47.242;18.674;2022-08-06T04:00:35;18.47;70.42
65858;SHT31;53776;47.242;18.674;2022-08-06T04:03:03;18.52;69.65
65858;SHT31;53776;47.242;18.674;2022-08-06T04:05:30;18.52;70.85
65858;SHT31;53776;47.242;18.674;2022-08-06T04:08:01;18.57;71.59
65858;SHT31;53776;47.242;18.674;2022-08-06T04:10:30;18.67;70.06
65858;SHT31;53776;47.242;18.674;2022-08-06T04:12:56;18.78;69.95
65858;SHT31;53776;47.242;18.674;2022-08-06T04:15:22;18.82;71.54
65858;SHT31;53776;47.242;18.674;2022-08-06T04:17:49;18.87;71.09
65858;SHT31;53776;47.242;18.674;2022-08-06T04:20:20;18.98;70.60
65858;SHT31;53776;47.242;18.674;2022-08-06T04:22:46;19.15;69.69
65858;SHT31;53776;47.242;18.674;2022-08-06T04:25:11;19.34;68.27
65858;SHT31;53776;47.242;18.674;2022-08-06T04:27:39;19.58;67.86
65858;SHT31;53776;47.242;18.674;2022-08-06T04:30:06;19.82;68.56
65858;SHT31;53776;47.242;18.674;2022-08-06T04:32:33;20.11;68.53
65858;SHT31;53776;47.242;18.674;2022-08-06T04:35:03;20.37;68.53
65858;SHT31;53776;47.242;18.674;2022-08-06T04:37:29;20.69;67.45
65858;SHT31;53776;47.242;18.674;2022-08-06T04:39:55;20.95;68.69
65858;SHT31;53776;47.242;18.674;2022-08-06T04:42:21;21.11;68.29
65858;SHT31;53776;47.242;18.674;2022-08-06T04:44:47;21.35;68.47
65858;SHT31;53776;47.242;18.674;2022-08-06T04:47:13;21.65;67.92
65858;SHT31;53776;47.242;18.674;2022-08-06T04:49:39;21.94;67.48
65858;SHT31;53776;47.242;18.674;2022-08-06T04:52:04;22.13;67.67
65858;SHT31;53776;47.242;18.674;2022-08-06T04:54:30;22.28;67.07
65858;SHT31;53776;47.242;18.674;2022-08-06T04:56:55;22.45;65.92
65858;SHT31;53776;47.242;18.674;2022-08-06T04:59:21;22.59;65.22
65858;SHT31;53776;47.242;18.674;2022-08-06T05:01:46;22.72;65.01
65858;SHT31;53776;47.242;18.674;2022-08-06T05:04:12;22.82;64.60
65858;SHT31;53776;47.242;18.674;2022-08-06T05:06:43;22.88;64.21
65858;SHT31;53776;47.242;18.674;2022-08-06T05:09:22;22.95;63.71
65858;SHT31;53776;47.242;18.674;2022-08-06T05:12:02;23.20;62.72
65858;SHT31;53776;47.242;18.674;2022-08-06T05:14:37;23.46;62.59
65858;SHT31;53776;47.242;18.674;2022-08-06T05:17:03;23.70;62.29
65858;SHT31;53776;47.242;18.674;2022-08-06T05:19:42;23.99;60.25
65858;SHT31;53776;47.242;18.674;2022-08-06T05:22:10;24.40;60.83
65858;SHT31;53776;47.242;18.674;2022-08-06T05:24:40;24.60;59.12
65858;SHT31;53776;47.242;18.674;2022-08-06T05:27:05;24.78;58.84
65858;SHT31;53776;47.242;18.674;2022-08-06T05:29:31;24.98;57.98
65858;SHT31;53776;47.242;18.674;2022-08-06T05:31:59;25.12;57.67
65858;SHT31;53776;47.242;18.674;2022-08-06T05:34:28;25.32;57.20
65858;SHT31;53776;47.242;18.674;2022-08-06T05:36:53;25.48;56.27
65858;SHT31;53776;47.242;18.674;2022-08-06T05:39:19;25.59;55.92
65858;SHT31;53776;47.242;18.674;2022-08-06T05:41:45;25.63;55.87
65858;SHT31;53776;47.242;18.674;2022-08-06T05:44:11;25.56;57.10
65858;SHT31;53776;47.242;18.674;2022-08-06T05:46:50;25.46;57.32
65858;SHT31;53776;47.242;18.674;2022-08-06T05:49:39;25.61;56.41
65858;SHT31;53776;47.242;18.674;2022-08-06T05:52:17;25.84;55.74
65858;SHT31;53776;47.242;18.674;2022-08-06T05:54:55;26.01;55.47
65858;SHT31;53776;47.242;18.674;2022-08-06T05:57:29;26.27;54.96
65858;SHT31;53776;47.242;18.674;2022-08-06T06:00:01;26.31;54.26
65858;SHT31;53776;47.242;18.674;2022-08-06T06:02:30;26.44;54.41
65858;SHT31;53776;47.242;18.674;2022-08-06T06:04:56;26.45;53.19
65858;SHT31;53776;47.242;18.674;2022-08-06T06:07:23;26.52;52.33
65858;SHT31;53776;47.242;18.674;2022-08-06T06:09:49;26.63;53.00
65858;SHT31;53776;47.242;18.674;2022-08-06T06:12:14;26.78;52.66
65858;SHT31;53776;47.242;18.674;2022-08-06T06:14:42;26.89;51.22
65858;SHT31;53776;47.242;18.674;2022-08-06T06:22:51;27.20;50.21
65858;SHT31;53776;47.242;18.674;2022-08-06T06:25:31;27.19;50.50
65858;SHT31;53776;47.242;18.674;2022-08-06T06:30:58;27.29;50.18
65858;SHT31;53776;47.242;18.674;2022-08-06T06:36:32;27.43;50.74
65858;SHT31;53776;47.242;18.674;2022-08-06T06:41:49;29.38;46.94
65858;SHT31;53776;47.242;18.674;2022-08-06T06:44:25;29.81;45.33
65858;SHT31;53776;47.242;18.674;2022-08-06T06:47:08;30.54;44.39
65858;SHT31;53776;47.242;18.674;2022-08-06T06:49:51;30.49;44.07
65858;SHT31;53776;47.242;18.674;2022-08-06T06:52:38;31.23;42.80
65858;SHT31;53776;47.242;18.674;2022-08-06T06:57:44;31.47;42.23
65858;SHT31;53776;47.242;18.674;2022-08-06T07:00:11;31.74;42.08
65858;SHT31;53776;47.242;18.674;2022-08-06T07:02:38;31.74;41.57
65858;SHT31;53776;47.242;18.674;2022-08-06T07:05:07;32.18;41.12
65858;SHT31;53776;47.242;18.674;2022-08-06T07:07:37;32.16;40.54
65858;SHT31;53776;47.242;18.674;2022-08-06T07:10:04;32.43;40.21
65858;SHT31;53776;47.242;18.674;2022-08-06T07:12:31;32.64;40.26
65858;SHT31;53776;47.242;18.674;2022-08-06T07:14:58;32.77;39.63
65858;SHT31;53776;47.242;18.674;2022-08-06T07:17:25;32.97;39.53
65858;SHT31;53776;47.242;18.674;2022-08-06T07:19:54;32.26;40.23
65858;SHT31;53776;47.242;18.674;2022-08-06T07:22:22;32.30;40.19
65858;SHT31;53776;47.242;18.674;2022-08-06T07:24:51;32.57;40.27
65858;SHT31;53776;47.242;18.674;2022-08-06T07:27:17;32.94;39.16
65858;SHT31;53776;47.242;18.674;2022-08-06T07:29:44;33.17;38.98
65858;SHT31;53776;47.242;18.674;2022-08-06T07:32:10;33.75;38.52
65858;SHT31;53776;47.242;18.674;2022-08-06T07:34:37;33.59;38.52
65858;SHT31;53776;47.242;18.674;2022-08-06T07:37:04;33.63;37.87
65858;SHT31;53776;47.242;18.674;2022-08-06T07:39:34;33.70;37.65
65858;SHT31;53776;47.242;18.674;2022-08-06T07:42:06;33.24;38.33
65858;SHT31;53776;47.242;18.674;2022-08-06T07:44:35;33.72;38.47
65858;SHT31;53776;47.242;18.674;2022-08-06T07:47:02;33.99;37.65
65858;SHT31;53776;47.242;18.674;2022-08-06T07:49:36;34.13;38.02
65858;SHT31;53776;47.242;18.674;2022-08-06T07:52:04;34.16;36.50
65858;SHT31;53776;47.242;18.674;2022-08-06T07:54:30;34.13;36.79
65858;SHT31;53776;47.242;18.674;2022-08-06T07:56:57;34.21;36.45
65858;SHT31;53776;47.242;18.674;2022-08-06T07:59:24;34.02;36.60
65858;SHT31;53776;47.242;18.674;2022-08-06T08:01:51;34.25;36.82
65858;SHT31;53776;47.242;18.674;2022-08-06T08:04:16;33.80;37.35
65858;SHT31;53776;47.242;18.674;2022-08-06T08:07:02;34.48;36.30
65858;SHT31;53776;47.242;18.674;2022-08-06T08:09:28;34.71;36.05
65858;SHT31;53776;47.242;18.674;2022-08-06T08:11:55;34.69;36.02
65858;SHT31;53776;47.242;18.674;2022-08-06T08:14:22;34.79;35.40
65858;SHT31;53776;47.242;18.674;2022-08-06T08:16:48;34.57;35.75
65858;SHT31;53776;47.242;18.674;2022-08-06T08:21:48;35.02;35.81
65858;SHT31;53776;47.242;18.674;2022-08-06T08:24:14;34.88;35.38
65858;SHT31;53776;47.242;18.674;2022-08-06T08:26:41;35.56;35.29
65858;SHT31;53776;47.242;18.674;2022-08-06T08:29:06;35.47;35.74
65858;SHT31;53776;47.242;18.674;2022-08-06T08:31:32;36.00;34.23
65858;SHT31;53776;47.242;18.674;2022-08-06T08:33:57;36.28;34.45
65858;SHT31;53776;47.242;18.674;2022-08-06T08:36:22;36.27;34.14
65858;SHT31;53776;47.242;18.674;2022-08-06T08:38:48;35.69;33.91
65858;SHT31;53776;47.242;18.674;2022-08-06T08:41:23;35.61;34.85
65858;SHT31;53776;47.242;18.674;2022-08-06T08:43:56;35.95;35.16
65858;SHT31;53776;47.242;18.674;2022-08-06T08:46:22;35.84;34.27
65858;SHT31;53776;47.242;18.674;2022-08-06T08:48:49;35.84;34.85
65858;SHT31;53776;47.242;18.674;2022-08-06T08:51:16;35.37;34.39
65858;SHT31;53776;47.242;18.674;2022-08-06T08:53:51;35.42;33.46
65858;SHT31;53776;47.242;18.674;2022-08-06T08:56:18;35.39;34.70
65858;SHT31;53776;47.242;18.674;2022-08-06T08:58:43;35.33;34.66
65858;SHT31;53776;47.242;18.674;2022-08-06T09:01:10;35.67;35.33
65858;SHT31;53776;47.242;18.674;2022-08-06T09:03:38;35.69;34.82
65858;SHT31;53776;47.242;18.674;2022-08-06T09:06:05;35.50;35.27
65858;SHT31;53776;47.242;18.674;2022-08-06T09:08:31;35.39;34.37
65858;SHT31;53776;47.242;18.674;2022-08-06T09:10:57;35.08;34.87
65858;SHT31;53776;47.242;18.674;2022-08-06T09:13:24;35.03;34.78
65858;SHT31;53776;47.242;18.674;2022-08-06T09:15:51;34.69;35.57
65858;SHT31;53776;47.242;18.674;2022-08-06T09:18:18;34.41;36.56
65858;SHT31;53776;47.242;18.674;2022-08-06T09:20:43;34.11;37.59
65858;SHT31;53776;47.242;18.674;2022-08-06T09:23:09;33.72;37.03
65858;SHT31;53776;47.242;18.674;2022-08-06T09:28:30;33.44;37.42
65858;SHT31;53776;47.242;18.674;2022-08-06T09:31:10;33.46;37.63
65858;SHT31;53776;47.242;18.674;2022-08-06T09:33:38;33.24;37.54
65858;SHT31;53776;47.242;18.674;2022-08-06T09:36:05;33.34;38.21
65858;SHT31;53776;47.242;18.674;2022-08-06T09:38:30;33.36;38.00
65858;SHT31;53776;47.242;18.674;2022-08-06T09:41:10;33.54;37.18
65858;SHT31;53776;47.242;18.674;2022-08-06T09:43:37;33.61;39.64
65858;SHT31;53776;47.242;18.674;2022-08-06T09:46:04;33.56;38.32
65858;SHT31;53776;47.242;18.674;2022-08-06T09:48:29;33.56;38.09
65858;SHT31;53776;47.242;18.674;2022-08-06T09:50:55;33.61;38.59
65858;SHT31;53776;47.242;18.674;2022-08-06T09:53:20;33.79;39.27
65858;SHT31;53776;47.242;18.674;2022-08-06T09:55:50;33.86;37.32
65858;SHT31;53776;47.242;18.674;2022-08-06T09:58:46;33.90;37.88
65858;SHT31;53776;47.242;18.674;2022-08-06T10:01:23;33.75;36.75
65858;SHT31;53776;47.242;18.674;2022-08-06T10:03:50;33.80;37.81
65858;SHT31;53776;47.242;18.674;2022-08-06T10:06:18;33.75;37.18
65858;SHT31;53776;47.242;18.674;2022-08-06T10:08:48;33.97;38.71
65858;SHT31;53776;47.242;18.674;2022-08-06T10:11:13;33.96;37.08
65858;SHT31;53776;47.242;18.674;2022-08-06T10:13:46;34.00;37.68
65858;SHT31;53776;47.242;18.674;2022-08-06T10:16:17;34.10;38.58
65858;SHT31;53776;47.242;18.674;2022-08-06T10:18:45;33.92;37.58
65858;SHT31;53776;47.242;18.674;2022-08-06T10:21:17;33.89;37.78
65858;SHT31;53776;47.242;18.674;2022-08-06T10:23:46;33.94;37.19
65858;SHT31;53776;47.242;18.674;2022-08-06T10:26:22;34.03;38.24
65858;SHT31;53776;47.242;18.674;2022-08-06T10:28:51;33.94;37.40
65858;SHT31;53776;47.242;18.674;2022-08-06T10:31:18;34.07;37.97
65858;SHT31;53776;47.242;18.674;2022-08-06T10:33:49;34.16;37.86
65858;SHT31;53776;47.242;18.674;2022-08-06T10:36:19;34.04;38.55
65858;SHT31;53776;47.242;18.674;2022-08-06T10:38:49;34.09;39.17
65858;SHT31;53776;47.242;18.674;2022-08-06T10:41:15;34.09;38.30
65858;SHT31;53776;47.242;18.674;2022-08-06T10:43:41;33.92;39.43
65858;SHT31;53776;47.242;18.674;2022-08-06T10:46:09;34.14;38.99
65858;SHT31;53776;47.242;18.674;2022-08-06T10:48:36;34.20;38.29
65858;SHT31;53776;47.242;18.674;2022-08-06T10:51:04;34.13;37.78
65858;SHT31;53776;47.242;18.674;2022-08-06T10:53:31;34.33;38.63
65858;SHT31;53776;47.242;18.674;2022-08-06T10:56:01;34.20;38.04
65858;SHT31;53776;47.242;18.674;2022-08-06T10:58:29;34.24;38.42
65858;SHT31;53776;47.242;18.674;2022-08-06T11:00:55;34.34;37.59
65858;SHT31;53776;47.242;18.674;2022-08-06T11:03:30;34.13;38.71
65858;SHT31;53776;47.242;18.674;2022-08-06T11:14:35;34.30;37.38
65858;SHT31;53776;47.242;18.674;2022-08-06T11:17:01;34.25;37.99
65858;SHT31;53776;47.242;18.674;2022-08-06T11:19:44;34.37;37.68
65858;SHT31;53776;47.242;18.674;2022-08-06T11:24:57;34.34;37.77
65858;SHT31;53776;47.242;18.674;2022-08-06T11:27:47;34.50;38.00
65858;SHT31;53776;47.242;18.674;2022-08-06T11:30:14;34.51;39.32
65858;SHT31;53776;47.242;18.674;2022-08-06T11:32:45;34.43;37.43
65858;SHT31;53776;47.242;18.674;2022-08-06T11:37:58;34.48;38.21
65858;SHT31;53776;47.242;18.674;2022-08-06T11:40:24;34.60;37.50
65858;SHT31;53776;47.242;18.674;2022-08-06T11:42:50;34.79;36.73
65858;SHT31;53776;47.242;18.674;2022-08-06T11:45:16;34.54;37.12
65858;SHT31;53776;47.242;18.674;2022-08-06T11:48:04;34.47;37.52
65858;SHT31;53776;47.242;18.674;2022-08-06T11:50:30;34.61;37.95
65858;SHT31;53776;47.242;18.674;2022-08-06T11:52:56;34.62;38.22
65858;SHT31;53776;47.242;18.674;2022-08-06T11:55:21;34.51;37.35
65858;SHT31;53776;47.242;18.674;2022-08-06T11:57:47;34.55;38.14
65858;SHT31;53776;47.242;18.674;2022-08-06T12:00:20;34.74;39.09
65858;SHT31;53776;47.242;18.674;2022-08-06T12:02:53;34.72;37.29
65858;SHT31;53776;47.242;18.674;2022-08-06T12:07:46;34.60;37.98
65858;SHT31;53776;47.242;18.674;2022-08-06T12:10:15;34.28;37.74
65858;SHT31;53776;47.242;18.674;2022-08-06T12:12:45;34.24;38.07
65858;SHT31;53776;47.242;18.674;2022-08-06T12:17:37;34.14;38.67
65858;SHT31;53776;47.242;18.674;2022-08-06T12:20:03;34.20;38.96
65858;SHT31;53776;47.242;18.674;2022-08-06T12:22:33;34.24;38.55
65858;SHT31;53776;47.242;18.674;2022-08-06T12:25:06;34.48;39.05
65858;SHT31;53776;47.242;18.674;2022-08-06T12:27:35;34.52;38.67
65858;SHT31;53776;47.242;18.674;2022-08-06T12:30:04;34.74;38.74
65858;SHT31;53776;47.242;18.674;2022-08-06T12:32:31;34.57;37.72
65858;SHT31;53776;47.242;18.674;2022-08-06T12:35:03;34.43;38.25
65858;SHT31;53776;47.242;18.674;2022-08-06T12:37:43;34.51;38.96
65858;SHT31;53776;47.242;18.674;2022-08-06T12:40:11;34.17;38.80
65858;SHT31;53776;47.242;18.674;2022-08-06T12:42:50;33.94;39.13
65858;SHT31;53776;47.242;18.674;2022-08-06T12:45:23;34.16;39.23
65858;SHT31;53776;47.242;18.674;2022-08-06T12:50:26;33.88;39.96
65858;SHT31;53776;47.242;18.674;2022-08-06T12:55:31;33.75;39.81
65858;SHT31;53776;47.242;18.674;2022-08-06T12:57:59;33.73;40.23
65858;SHT31;53776;47.242;18.674;2022-08-06T13:00:26;33.62;40.16
65858;SHT31;53776;47.242;18.674;2022-08-06T13:02:52;33.63;40.51
65858;SHT31;53776;47.242;18.674;2022-08-06T13:05:18;33.68;40.21
65858;SHT31;53776;47.242;18.674;2022-08-06T13:07:44;33.75;39.75
65858;SHT31;53776;47.242;18.674;2022-08-06T13:10:11;33.58;40.49
65858;SHT31;53776;47.242;18.674;2022-08-06T13:12:36;33.59;41.48
65858;SHT31;53776;47.242;18.674;2022-08-06T13:15:14;33.41;41.32
65858;SHT31;53776;47.242;18.674;2022-08-06T13:17:39;33.26;41.63
65858;SHT31;53776;47.242;18.674;2022-08-06T13:20:05;33.18;42.29
65858;SHT31;53776;47.242;18.674;2022-08-06T13:22:48;33.07;42.07
65858;SHT31;53776;47.242;18.674;2022-08-06T13:25:14;33.21;41.59
65858;SHT31;53776;47.242;18.674;2022-08-06T13:27:42;33.17;41.79
65858;SHT31;53776;47.242;18.674;2022-08-06T13:30:09;32.96;42.90
65858;SHT31;53776;47.242;18.674;2022-08-06T13:32:35;33.03;42.11
65858;SHT31;53776;47.242;18.674;2022-08-06T13:35:08;32.94;43.15
65858;SHT31;53776;47.242;18.674;2022-08-06T13:37:48;32.86;42.62
65858;SHT31;53776;47.242;18.674;2022-08-06T13:40:17;32.91;42.61
65858;SHT31;53776;47.242;18.674;2022-08-06T13:42:56;32.78;42.17
65858;SHT31;53776;47.242;18.674;2022-08-06T13:45:27;32.63;42.50
65858;SHT31;53776;47.242;18.674;2022-08-06T13:48:03;32.52;42.57
65858;SHT31;53776;47.242;18.674;2022-08-06T13:50:29;32.37;42.65
65858;SHT31;53776;47.242;18.674;2022-08-06T13:52:57;32.30;43.87
65858;SHT31;53776;47.242;18.674;2022-08-06T13:55:23;32.19;43.75
65858;SHT31;53776;47.242;18.674;2022-08-06T13:57:51;32.08;45.16
65858;SHT31;53776;47.242;18.674;2022-08-06T14:00:17;32.01;44.55
65858;SHT31;53776;47.242;18.674;2022-08-06T14:02:43;31.99;44.94
65858;SHT31;53776;47.242;18.674;2022-08-06T14:05:08;31.84;44.68
65858;SHT31;53776;47.242;18.674;2022-08-06T14:07:34;31.89;44.83
65858;SHT31;53776;47.242;18.674;2022-08-06T14:09:59;31.80;44.44
65858;SHT31;53776;47.242;18.674;2022-08-06T14:12:25;31.60;45.93
65858;SHT31;53776;47.242;18.674;2022-08-06T14:14:50;31.64;44.92
65858;SHT31;53776;47.242;18.674;2022-08-06T14:17:16;31.44;44.28
65858;SHT31;53776;47.242;18.674;2022-08-06T14:19:42;31.24;44.88
65858;SHT31;53776;47.242;18.674;2022-08-06T14:22:08;30.90;45.79
65858;SHT31;53776;47.242;18.674;2022-08-06T14:24:34;30.92;45.60
65858;SHT31;53776;47.242;18.674;2022-08-06T14:27:00;30.89;45.97
65858;SHT31;53776;47.242;18.674;2022-08-06T14:29:25;30.97;45.95
65858;SHT31;53776;47.242;18.674;2022-08-06T14:31:51;30.92;46.20
65858;SHT31;53776;47.242;18.674;2022-08-06T14:34:16;30.99;45.84
65858;SHT31;53776;47.242;18.674;2022-08-06T14:36:42;30.48;46.20
65858;SHT31;53776;47.242;18.674;2022-08-06T14:39:07;30.07;47.31
65858;SHT31;53776;47.242;18.674;2022-08-06T14:41:37;29.81;48.26
65858;SHT31;53776;47.242;18.674;2022-08-06T14:44:21;29.76;48.73
65858;SHT31;53776;47.242;18.674;2022-08-06T14:47:05;29.60;49.08
65858;SHT31;53776;47.242;18.674;2022-08-06T14:49:33;29.51;48.97
65858;SHT31;53776;47.242;18.674;2022-08-06T14:51:59;29.65;48.66
65858;SHT31;53776;47.242;18.674;2022-08-06T14:54:24;29.83;48.89
65858;SHT31;53776;47.242;18.674;2022-08-06T14:56:50;29.80;48.10
65858;SHT31;53776;47.242;18.674;2022-08-06T14:59:15;29.89;48.09
65858;SHT31;53776;47.242;18.674;2022-08-06T15:01:41;29.76;49.00
65858;SHT31;53776;47.242;18.674;2022-08-06T15:04:07;29.74;48.80
65858;SHT31;53776;47.242;18.674;2022-08-06T15:06:32;29.63;48.75
65858;SHT31;53776;47.242;18.674;2022-08-06T15:08:57;29.58;47.57
65858;SHT31;53776;47.242;18.674;2022-08-06T15:11:23;29.43;47.96
65858;SHT31;53776;47.242;18.674;2022-08-06T15:13:49;29.59;48.30
65858;SHT31;53776;47.242;18.674;2022-08-06T15:16:14;29.51;48.41
65858;SHT31;53776;47.242;18.674;2022-08-06T15:18:40;29.49;48.36
65858;SHT31;53776;47.242;18.674;2022-08-06T15:21:08;29.45;48.62
65858;SHT31;53776;47.242;18.674;2022-08-06T15:23:34;29.43;48.69
65858;SHT31;53776;47.242;18.674;2022-08-06T15:25:59;29.35;48.75
65858;SHT31;53776;47.242;18.674;2022-08-06T15:28:25;29.46;47.97
65858;SHT31;53776;47.242;18.674;2022-08-06T15:30:51;29.45;47.44
65858;SHT31;53776;47.242;18.674;2022-08-06T15:33:17;29.42;47.28
65858;SHT31;53776;47.242;18.674;2022-08-06T15:35:43;29.31;47.65
65858;SHT31;53776;47.242;18.674;2022-08-06T15:38:08;29.21;48.12
65858;SHT31;53776;47.242;18.674;2022-08-06T15:40:34;29.14;48.21
65858;SHT31;53776;47.242;18.674;2022-08-06T15:42:59;29.16;48.84
65858;SHT31;53776;47.242;18.674;2022-08-06T15:45:24;29.15;47.70
65858;SHT31;53776;47.242;18.674;2022-08-06T15:47:50;29.15;48.28
65858;SHT31;53776;47.242;18.674;2022-08-06T15:50:15;29.12;48.53
65858;SHT31;53776;47.242;18.674;2022-08-06T15:52:41;29.04;49.38
65858;SHT31;53776;47.242;18.674;2022-08-06T15:55:07;29.08;49.37
65858;SHT31;53776;47.242;18.674;2022-08-06T15:57:33;29.11;49.16
65858;SHT31;53776;47.242;18.674;2022-08-06T15:59:58;29.02;48.89
65858;SHT31;53776;47.242;18.674;2022-08-06T16:02:23;28.88;49.94
65858;SHT31;53776;47.242;18.674;2022-08-06T16:04:50;28.86;49.99
65858;SHT31;53776;47.242;18.674;2022-08-06T16:07:16;28.75;49.93
65858;SHT31;53776;47.242;18.674;2022-08-06T16:09:42;28.78;49.89
65858;SHT31;53776;47.242;18.674;2022-08-06T16:12:08;28.80;49.95
65858;SHT31;53776;47.242;18.674;2022-08-06T16:14:34;28.74;50.76
65858;SHT31;53776;47.242;18.674;2022-08-06T16:17:00;28.66;49.72